sensor_id;sensor_type;location;lat;lon;timestamp;pressure;altitude;pressure_sealevel;temperature;humidity
49841;BME280;35738;49.890;5.930;2023-04-24T00:01:03;94610.16;;;5.24;100.00
49841;BME280;35738;49.890;5.930;2023-04-24T00:03:30;94615.94;;;5.23;100.00
49841;BME280;35738;49.890;5.930;2023-04-24T00:05:57;94610.16;;;5.24;100.00
49841;BME280;35738;49.890;5.930;2023-04-24T00:08:25;94595.22;;;5.30;100.00
49841;BME280;35738;49.890;5.930;2023-04-24T00:10:51;94620.22;;;5.32;100.00
49841;BME280;35738;49.890;5.930;2023-04-24T00:13:19;94625.34;;;5.34;100.00
49841;BME280;35738;49.890;5.930;2023-04-24T00:15:48;94620.69;;;5.34;100.00
49841;BME280;35738;49.890;5.930;2023-04-24T00:18:14;94615.09;;;5.31;100.00
49841;BME280;35738;49.890;5.930;2023-04-24T00:20:41;94629.53;;;5.31;100.00
49841;BME280;35738;49.890;5.930;2023-04-24T00:23:10;94630.97;;;5.29;100.00
49841;BME280;35738;49.890;5.930;2023-04-24T00:25:36;94619.94;;;5.25;100.00
49841;BME280;35738;49.890;5.930;2023-04-24T00:28:03;94626.97;;;5.26;100.00
49841;BME280;35738;49.890;5.930;2023-04-24T00:30:30;94627.47;;;5.20;100.00
49841;BME280;35738;49.890;5.930;2023-04-24T00:32:57;94628.44;;;5.15;100.00
49841;BME280;35738;49.890;5.930;2023-04-24T00:35:24;94623.00;;;5.06;100.00
49841;BME280;35738;49.890;5.930;2023-04-24T00:37:51;94625.91;;;5.01;100.00
49841;BME280;35738;49.890;5.930;2023-04-24T00:40:18;94616.47;;;4.99;100.00
49841;BME280;35738;49.890;5.930;2023-04-24T00:42:44;94642.28;;;4.93;100.00
49841;BME280;35738;49.890;5.930;2023-04-24T00:45:12;94634.59;;;4.86;100.00
49841;BME280;35738;49.890;5.930;2023-04-24T00:47:42;94629.81;;;4.83;100.00
49841;BME280;35738;49.890;5.930;2023-04-24T00:50:09;94637.16;;;4.83;100.00
49841;BME280;35738;49.890;5.930;2023-04-24T00:52:37;94640.06;;;4.77;100.00
49841;BME280;35738;49.890;5.930;2023-04-24T00:55:07;94626.78;;;4.76;100.00
49841;BME280;35738;49.890;5.930;2023-04-24T00:57:34;94639.91;;;4.74;100.00
49841;BME280;35738;49.890;5.930;2023-04-24T01:00:02;94635.44;;;4.69;100.00
49841;BME280;35738;49.890;5.930;2023-04-24T01:02:29;94642.66;;;4.57;100.00
49841;BME280;35738;49.890;5.930;2023-04-24T01:04:57;94636.56;;;4.51;100.00
49841;BME280;35738;49.890;5.930;2023-04-24T01:07:24;94624.38;;;4.40;100.00
49841;BME280;35738;49.890;5.930;2023-04-24T01:09:51;94634.13;;;4.41;100.00
49841;BME280;35738;49.890;5.930;2023-04-24T01:12:19;94634.78;;;4.38;100.00
49841;BME280;35738;49.890;5.930;2023-04-24T01:14:46;94619.72;;;4.32;100.00
49841;BME280;35738;49.890;5.930;2023-04-24T01:17:12;94622.47;;;4.23;100.00
49841;BME280;35738;49.890;5.930;2023-04-24T01:19:39;94628.38;;;4.17;100.00
49841;BME280;35738;49.890;5.930;2023-04-24T01:22:10;94630.78;;;4.09;100.00
49841;BME280;35738;49.890;5.930;2023-04-24T01:24:38;94628.06;;;4.09;100.00
49841;BME280;35738;49.890;5.930;2023-04-24T01:27:07;94643.25;;;4.10;100.00
49841;BME280;35738;49.890;5.930;2023-04-24T01:29:34;94638.31;;;4.12;100.00
49841;BME280;35738;49.890;5.930;2023-04-24T01:32:03;94641.34;;;4.11;100.00
49841;BME280;35738;49.890;5.930;2023-04-24T01:34:30;94631.56;;;4.01;100.00
49841;BME280;35738;49.890;5.930;2023-04-24T01:36:57;94638.59;;;3.94;100.00
49841;BME280;35738;49.890;5.930;2023-04-24T01:39:24;94641.63;;;3.92;100.00
49841;BME280;35738;49.890;5.930;2023-04-24T01:41:52;94654.25;;;3.88;100.00
49841;BME280;35738;49.890;5.930;2023-04-24T01:44:20;94641.94;;;3.82;100.00
49841;BME280;35738;49.890;5.930;2023-04-24T01:46:47;94638.09;;;3.83;100.00
49841;BME280;35738;49.890;5.930;2023-04-24T01:49:14;94630.41;;;3.76;100.00
49841;BME280;35738;49.890;5.930;2023-04-24T01:51:40;94628.81;;;3.75;100.00
49841;BME280;35738;49.890;5.930;2023-04-24T01:54:07;94642.34;;;3.67;100.00
49841;BME280;35738;49.890;5.930;2023-04-24T01:56:34;94636.75;;;3.63;100.00
49841;BME280;35738;49.890;5.930;2023-04-24T01:59:03;94628.91;;;3.62;100.00
49841;BME280;35738;49.890;5.930;2023-04-24T02:01:34;94624.09;;;3.59;100.00
49841;BME280;35738;49.890;5.930;2023-04-24T02:04:06;94616.56;;;3.56;100.00
49841;BME280;35738;49.890;5.930;2023-04-24T02:06:33;94625.34;;;3.53;100.00
49841;BME280;35738;49.890;5.930;2023-04-24T02:09:00;94627.59;;;3.50;100.00
49841;BME280;35738;49.890;5.930;2023-04-24T02:11:27;94622.63;;;3.44;100.00
49841;BME280;35738;49.890;5.930;2023-04-24T02:13:54;94627.88;;;3.40;100.00
49841;BME280;35738;49.890;5.930;2023-04-24T02:16:20;94630.47;;;3.45;100.00
49841;BME280;35738;49.890;5.930;2023-04-24T02:18:47;94628.84;;;3.44;100.00
49841;BME280;35738;49.890;5.930;2023-04-24T02:21:14;94637.50;;;3.46;100.00
49841;BME280;35738;49.890;5.930;2023-04-24T02:23:40;94633.34;;;3.49;100.00
49841;BME280;35738;49.890;5.930;2023-04-24T02:26:07;94641.03;;;3.56;100.00
49841;BME280;35738;49.890;5.930;2023-04-24T02:28:34;94642.81;;;3.60;100.00
49841;BME280;35738;49.890;5.930;2023-04-24T02:31:01;94645.38;;;3.65;100.00
49841;BME280;35738;49.890;5.930;2023-04-24T02:33:27;94646.81;;;3.63;100.00
49841;BME280;35738;49.890;5.930;2023-04-24T02:35:54;94637.53;;;3.64;100.00
49841;BME280;35738;49.890;5.930;2023-04-24T02:38:22;94641.38;;;3.63;100.00
49841;BME280;35738;49.890;5.930;2023-04-24T02:40:48;94651.78;;;3.61;100.00
49841;BME280;35738;49.890;5.930;2023-04-24T02:43:15;94650.16;;;3.60;100.00
49841;BME280;35738;49.890;5.930;2023-04-24T02:45:41;94661.22;;;3.63;100.00
49841;BME280;35738;49.890;5.930;2023-04-24T02:48:08;94655.94;;;3.67;100.00
49841;BME280;35738;49.890;5.930;2023-04-24T02:54:18;94652.47;;;3.75;100.00
49841;BME280;35738;49.890;5.930;2023-04-24T02:56:45;94648.97;;;3.74;100.00
49841;BME280;35738;49.890;5.930;2023-04-24T03:03:17;94661.59;;;3.79;100.00
49841;BME280;35738;49.890;5.930;2023-04-24T03:05:44;94668.66;;;3.80;100.00
49841;BME280;35738;49.890;5.930;2023-04-24T03:08:13;94671.22;;;3.85;100.00
49841;BME280;35738;49.890;5.930;2023-04-24T03:10:40;94671.38;;;3.80;100.00
49841;BME280;35738;49.890;5.930;2023-04-24T03:13:07;94678.72;;;3.79;100.00
49841;BME280;35738;49.890;5.930;2023-04-24T03:15:33;94661.28;;;3.80;100.00
49841;BME280;35738;49.890;5.930;2023-04-24T03:18:01;94667.22;;;3.82;100.00
49841;BME280;35738;49.890;5.930;2023-04-24T03:20:29;94668.34;;;3.81;100.00
49841;BME280;35738;49.890;5.930;2023-04-24T03:22:56;94668.66;;;3.80;100.00
49841;BME280;35738;49.890;5.930;2023-04-24T03:25:23;94673.44;;;3.83;100.00
49841;BME280;35738;49.890;5.930;2023-04-24T03:27:52;94672.66;;;3.82;100.00
49841;BME280;35738;49.890;5.930;2023-04-24T03:30:19;94678.88;;;3.83;100.00
49841;BME280;35738;49.890;5.930;2023-04-24T03:32:45;94675.69;;;3.81;100.00
49841;BME280;35738;49.890;5.930;2023-04-24T03:35:12;94673.44;;;3.83;100.00
49841;BME280;35738;49.890;5.930;2023-04-24T03:37:38;94679.38;;;3.85;100.00
49841;BME280;35738;49.890;5.930;2023-04-24T03:40:06;94671.22;;;3.85;100.00
49841;BME280;35738;49.890;5.930;2023-04-24T03:42:33;94696.66;;;3.89;100.00
49841;BME280;35738;49.890;5.930;2023-04-24T03:45:02;94657.94;;;3.83;100.00
49841;BME280;35738;49.890;5.930;2023-04-24T03:47:28;94668.66;;;3.80;100.00
49841;BME280;35738;49.890;5.930;2023-04-24T03:49:55;94680.63;;;3.79;100.00
49841;BME280;35738;49.890;5.930;2023-04-24T03:52:23;94677.44;;;3.77;100.00
49841;BME280;35738;49.890;5.930;2023-04-24T03:54:50;94683.19;;;3.75;100.00
49841;BME280;35738;49.890;5.930;2023-04-24T03:57:16;94671.47;;;3.66;100.00
49841;BME280;35738;49.890;5.930;2023-04-24T03:59:43;94679.78;;;3.70;100.00
49841;BME280;35738;49.890;5.930;2023-04-24T04:02:10;94673.22;;;3.71;100.00
49841;BME280;35738;49.890;5.930;2023-04-24T04:04:36;94685.41;;;3.73;100.00
49841;BME280;35738;49.890;5.930;2023-04-24T04:07:03;94690.84;;;3.73;100.00
49841;BME280;35738;49.890;5.930;2023-04-24T04:09:31;94684.63;;;3.73;100.00
49841;BME280;35738;49.890;5.930;2023-04-24T04:11:58;94692.78;;;3.73;100.00
49841;BME280;35738;49.890;5.930;2023-04-24T04:14:27;94695.50;;;3.73;100.00
49841;BME280;35738;49.890;5.930;2023-04-24T04:16:54;94701.75;;;3.73;100.00
49841;BME280;35738;49.890;5.930;2023-04-24T04:19:20;94706.66;;;3.71;100.00
49841;BME280;35738;49.890;5.930;2023-04-24T04:21:47;94701.75;;;3.73;100.00
49841;BME280;35738;49.890;5.930;2023-04-24T04:24:19;94698.50;;;3.71;100.00
49841;BME280;35738;49.890;5.930;2023-04-24T04:26:50;94705.56;;;3.72;100.00
49841;BME280;35738;49.890;5.930;2023-04-24T04:29:18;94704.47;;;3.73;100.00
49841;BME280;35738;49.890;5.930;2023-04-24T04:31:45;94719.66;;;3.74;100.00
49841;BME280;35738;49.890;5.930;2023-04-24T04:34:11;94722.16;;;3.71;100.00
49841;BME280;35738;49.890;5.930;2023-04-24T04:36:38;94711.63;;;3.69;100.00
49841;BME280;35738;49.890;5.930;2023-04-24T04:39:06;94715.28;;;3.65;100.00
49841;BME280;35738;49.890;5.930;2023-04-24T04:41:33;94722.31;;;3.66;100.00
49841;BME280;35738;49.890;5.930;2023-04-24T04:44:05;94722.16;;;3.71;100.00
49841;BME280;35738;49.890;5.930;2023-04-24T04:46:31;94719.97;;;3.73;100.00
49841;BME280;35738;49.890;5.930;2023-04-24T04:49:03;94730.22;;;3.76;100.00
49841;BME280;35738;49.890;5.930;2023-04-24T04:51:30;94729.28;;;3.80;100.00
49841;BME280;35738;49.890;5.930;2023-04-24T04:53:57;94734.41;;;3.82;100.00
49841;BME280;35738;49.890;5.930;2023-04-24T04:56:23;94736.81;;;3.83;100.00
49841;BME280;35738;49.890;5.930;2023-04-24T04:58:50;94719.19;;;3.81;100.00
49841;BME280;35738;49.890;5.930;2023-04-24T05:01:18;94734.72;;;3.80;100.00
49841;BME280;35738;49.890;5.930;2023-04-24T05:03:45;94746.41;;;3.81;100.00
49841;BME280;35738;49.890;5.930;2023-04-24T05:06:12;94739.19;;;3.76;100.00
49841;BME280;35738;49.890;5.930;2023-04-24T05:08:38;94749.44;;;3.79;100.00
49841;BME280;35738;49.890;5.930;2023-04-24T05:11:05;94745.41;;;3.77;100.00
49841;BME280;35738;49.890;5.930;2023-04-24T05:13:32;94750.53;;;3.78;100.00
49841;BME280;35738;49.890;5.930;2023-04-24T05:16:06;94753.44;;;3.82;100.00
49841;BME280;35738;49.890;5.930;2023-04-24T05:18:33;94764.31;;;3.82;100.00
49841;BME280;35738;49.890;5.930;2023-04-24T05:21:00;94763.34;;;3.78;100.00
49841;BME280;35738;49.890;5.930;2023-04-24T05:23:27;94763.19;;;3.83;100.00
49841;BME280;35738;49.890;5.930;2023-04-24T05:25:54;94780.94;;;3.80;100.00
49841;BME280;35738;49.890;5.930;2023-04-24T05:28:21;94781.75;;;3.81;100.00
49841;BME280;35738;49.890;5.930;2023-04-24T05:30:47;94782.56;;;3.81;100.00
49841;BME280;35738;49.890;5.930;2023-04-24T05:33:14;94771.19;;;3.79;100.00
49841;BME280;35738;49.890;5.930;2023-04-24T05:35:41;94786.06;;;3.82;100.00
49841;BME280;35738;49.890;5.930;2023-04-24T05:38:13;94784.47;;;3.81;100.00
49841;BME280;35738;49.890;5.930;2023-04-24T05:40:40;94778.41;;;3.84;100.00
49841;BME280;35738;49.890;5.930;2023-04-24T05:43:06;94769.78;;;3.91;100.00
49841;BME280;35738;49.890;5.930;2023-04-24T05:45:33;94783.56;;;3.94;100.00
49841;BME280;35738;49.890;5.930;2023-04-24T05:48:02;94789.19;;;3.98;100.00
49841;BME280;35738;49.890;5.930;2023-04-24T05:50:29;94793.81;;;3.97;100.00
49841;BME280;35738;49.890;5.930;2023-04-24T05:52:56;94789.00;;;3.94;100.00
49841;BME280;35738;49.890;5.930;2023-04-24T05:55:28;94790.78;;;3.99;100.00
49841;BME280;35738;49.890;5.930;2023-04-24T05:57:54;94788.56;;;4.01;100.00
49841;BME280;35738;49.890;5.930;2023-04-24T06:00:21;94797.03;;;3.99;100.00
49841;BME280;35738;49.890;5.930;2023-04-24T06:02:48;94794.78;;;4.01;100.00
49841;BME280;35738;49.890;5.930;2023-04-24T06:05:15;94784.53;;;3.98;100.00
49841;BME280;35738;49.890;5.930;2023-04-24T06:07:42;94801.84;;;4.02;100.00
49841;BME280;35738;49.890;5.930;2023-04-24T06:10:09;94804.41;;;4.07;100.00
49841;BME280;35738;49.890;5.930;2023-04-24T06:12:36;94801.22;;;4.05;100.00
49841;BME280;35738;49.890;5.930;2023-04-24T06:15:04;94807.31;;;4.11;100.00
49841;BME280;35738;49.890;5.930;2023-04-24T06:17:30;94824.13;;;4.13;100.00
49841;BME280;35738;49.890;5.930;2023-04-24T06:19:57;94818.19;;;4.11;100.00
49841;BME280;35738;49.890;5.930;2023-04-24T06:22:24;94804.91;;;4.09;100.00
49841;BME280;35738;49.890;5.930;2023-04-24T06:24:50;94820.59;;;4.12;100.00
49841;BME280;35738;49.890;5.930;2023-04-24T06:27:17;94825.41;;;4.15;100.00
49841;BME280;35738;49.890;5.930;2023-04-24T06:29:43;94812.59;;;4.16;100.00
49841;BME280;35738;49.890;5.930;2023-04-24T06:32:10;94824.28;;;4.17;100.00
49841;BME280;35738;49.890;5.930;2023-04-24T06:34:37;94833.13;;;4.22;100.00
49841;BME280;35738;49.890;5.930;2023-04-24T06:37:04;94833.47;;;4.29;100.00
49841;BME280;35738;49.890;5.930;2023-04-24T06:39:31;94829.78;;;4.25;100.00
49841;BME280;35738;49.890;5.930;2023-04-24T08:47:28;95008.59;;;6.18;100.00
49841;BME280;35738;49.890;5.930;2023-04-24T08:50:45;95008.09;;;6.24;100.00
49841;BME280;35738;49.890;5.930;2023-04-24T08:53:54;95011.00;;;6.19;100.00
49841;BME280;35738;49.890;5.930;2023-04-24T08:56:21;95011.81;;;6.02;100.00
49841;BME280;35738;49.890;5.930;2023-04-24T08:58:51;95021.22;;;5.79;100.00
49841;BME280;35738;49.890;5.930;2023-04-24T09:01:20;95020.56;;;5.73;100.00
49841;BME280;35738;49.890;5.930;2023-04-24T09:03:49;95019.78;;;5.82;100.00
49841;BME280;35738;49.890;5.930;2023-04-24T09:06:17;95017.53;;;5.84;100.00
49841;BME280;35738;49.890;5.930;2023-04-24T09:08:45;95020.56;;;5.82;100.00
49841;BME280;35738;49.890;5.930;2023-04-24T09:11:13;95022.16;;;5.66;100.00
49841;BME280;35738;49.890;5.930;2023-04-24T09:13:40;95013.81;;;5.54;100.00
49841;BME280;35738;49.890;5.930;2023-04-24T09:16:07;95018.28;;;5.41;100.00
49841;BME280;35738;49.890;5.930;2023-04-24T09:18:36;95013.47;;;5.47;100.00
49841;BME280;35738;49.890;5.930;2023-04-24T09:21:06;95022.63;;;5.59;100.00
49841;BME280;35738;49.890;5.930;2023-04-24T09:23:34;94996.50;;;5.84;100.00
49841;BME280;35738;49.890;5.930;2023-04-24T09:26:01;95022.41;;;6.13;100.00
49841;BME280;35738;49.890;5.930;2023-04-24T09:28:35;95015.28;;;6.46;100.00
49841;BME280;35738;49.890;5.930;2023-04-24T09:31:14;95008.69;;;6.47;100.00
49841;BME280;35738;49.890;5.930;2023-04-24T09:34:01;95022.53;;;6.42;100.00
49841;BME280;35738;49.890;5.930;2023-04-24T09:39:12;95010.19;;;6.10;100.00
49841;BME280;35738;49.890;5.930;2023-04-24T09:41:53;95013.84;;;5.88;100.00
49841;BME280;35738;49.890;5.930;2023-04-24T09:44:22;95023.78;;;5.84;100.00
49841;BME280;35738;49.890;5.930;2023-04-24T09:46:51;95024.41;;;5.72;100.00
49841;BME280;35738;49.890;5.930;2023-04-24T09:49:28;95035.19;;;5.86;100.00
49841;BME280;35738;49.890;5.930;2023-04-24T09:52:09;95033.81;;;5.97;100.00
49841;BME280;35738;49.890;5.930;2023-04-24T09:54:37;95024.81;;;6.23;100.00
49841;BME280;35738;49.890;5.930;2023-04-24T09:57:04;95026.84;;;6.60;100.00
49841;BME280;35738;49.890;5.930;2023-04-24T09:59:31;95018.56;;;6.95;100.00
49841;BME280;35738;49.890;5.930;2023-04-24T10:01:59;95014.91;;;6.82;100.00
49841;BME280;35738;49.890;5.930;2023-04-24T10:04:27;95023.63;;;6.58;100.00
49841;BME280;35738;49.890;5.930;2023-04-24T10:06:57;95031.38;;;6.39;100.00
49841;BME280;35738;49.890;5.930;2023-04-24T10:09:25;95036.38;;;6.28;100.00
49841;BME280;35738;49.890;5.930;2023-04-24T10:11:53;95043.91;;;6.14;100.00
49841;BME280;35738;49.890;5.930;2023-04-24T10:14:22;95038.47;;;6.23;100.00
49841;BME280;35738;49.890;5.930;2023-04-24T10:16:51;95032.50;;;6.29;100.00
49841;BME280;35738;49.890;5.930;2023-04-24T10:19:19;95043.53;;;6.59;100.00
49841;BME280;35738;49.890;5.930;2023-04-24T10:21:46;95039.03;;;6.80;100.00
49841;BME280;35738;49.890;5.930;2023-04-24T10:24:14;95043.13;;;7.04;100.00
49841;BME280;35738;49.890;5.930;2023-04-24T10:26:42;95046.25;;;6.85;100.00
49841;BME280;35738;49.890;5.930;2023-04-24T10:29:11;95038.72;;;6.56;100.00
49841;BME280;35738;49.890;5.930;2023-04-24T10:31:39;95055.63;;;6.49;100.00
49841;BME280;35738;49.890;5.930;2023-04-24T10:34:08;95039.03;;;6.63;100.00
49841;BME280;35738;49.890;5.930;2023-04-24T10:36:59;95057.19;;;6.76;100.00
49841;BME280;35738;49.890;5.930;2023-04-24T10:39:26;95052.38;;;6.56;100.00
49841;BME280;35738;49.890;5.930;2023-04-24T10:41:54;95061.06;;;6.49;100.00
49841;BME280;35738;49.890;5.930;2023-04-24T10:44:24;95069.78;;;6.34;100.00
49841;BME280;35738;49.890;5.930;2023-04-24T10:46:55;95070.09;;;6.07;100.00
49841;BME280;35738;49.890;5.930;2023-04-24T10:49:29;95066.41;;;6.02;100.00
49841;BME280;35738;49.890;5.930;2023-04-24T10:52:00;95077.94;;;5.99;100.00
49841;BME280;35738;49.890;5.930;2023-04-24T10:59:46;95097.72;;;6.22;100.00
49841;BME280;35738;49.890;5.930;2023-04-24T11:02:17;95097.25;;;6.29;100.00
49841;BME280;35738;49.890;5.930;2023-04-24T11:04:44;95107.03;;;6.30;100.00
49841;BME280;35738;49.890;5.930;2023-04-24T11:07:12;95102.84;;;6.50;100.00
49841;BME280;35738;49.890;5.930;2023-04-24T11:09:41;95105.44;;;6.46;100.00
49841;BME280;35738;49.890;5.930;2023-04-24T11:12:11;95116.69;;;6.71;100.00
49841;BME280;35738;49.890;5.930;2023-04-24T11:17:35;95110.22;;;6.84;100.00
49841;BME280;35738;49.890;5.930;2023-04-24T11:20:05;95107.03;;;6.82;100.00
49841;BME280;35738;49.890;5.930;2023-04-24T11:23:03;95120.97;;;6.97;100.00
49841;BME280;35738;49.890;5.930;2023-04-24T11:25:31;95119.69;;;7.04;100.00
49841;BME280;35738;49.890;5.930;2023-04-24T11:28:05;95115.00;;;7.04;100.00
49841;BME280;35738;49.890;5.930;2023-04-24T11:30:33;95110.34;;;7.05;100.00
49841;BME280;35738;49.890;5.930;2023-04-24T11:33:04;95100.56;;;6.95;100.00
49841;BME280;35738;49.890;5.930;2023-04-24T11:35:35;95105.41;;;6.89;100.00
49841;BME280;35738;49.890;5.930;2023-04-24T11:38:04;95106.47;;;7.06;100.00
49841;BME280;35738;49.890;5.930;2023-04-24T11:40:34;95096.53;;;7.01;100.00
49841;BME280;35738;49.890;5.930;2023-04-24T11:43:03;95106.38;;;6.85;100.00
49841;BME280;35738;49.890;5.930;2023-04-24T11:45:33;95115.19;;;6.99;100.00
49841;BME280;35738;49.890;5.930;2023-04-24T11:48:00;95088.16;;;7.06;100.00
49841;BME280;35738;49.890;5.930;2023-04-24T11:50:27;95102.75;;;7.19;100.00
49841;BME280;35738;49.890;5.930;2023-04-24T11:52:55;95113.59;;;7.53;100.00
49841;BME280;35738;49.890;5.930;2023-04-24T11:55:25;95108.50;;;8.02;100.00
49841;BME280;35738;49.890;5.930;2023-04-24T11:57:57;95096.25;;;8.29;100.00
49841;BME280;35738;49.890;5.930;2023-04-24T12:00:28;95110.69;;;8.09;100.00
49841;BME280;35738;49.890;5.930;2023-04-24T12:03:07;95114.91;;;7.77;100.00
49841;BME280;35738;49.890;5.930;2023-04-24T12:05:34;95118.13;;;7.41;100.00
49841;BME280;35738;49.890;5.930;2023-04-24T12:08:01;95141.44;;;7.38;100.00
49841;BME280;35738;49.890;5.930;2023-04-24T12:10:30;95129.75;;;7.29;100.00
49841;BME280;35738;49.890;5.930;2023-04-24T12:12:58;95145.13;;;6.87;100.00
49841;BME280;35738;49.890;5.930;2023-04-24T12:15:25;95138.84;;;6.95;100.00
49841;BME280;35738;49.890;5.930;2023-04-24T12:17:54;95154.75;;;7.01;100.00
49841;BME280;35738;49.890;5.930;2023-04-24T12:20:29;95142.66;;;7.11;100.00
49841;BME280;35738;49.890;5.930;2023-04-24T12:22:57;95155.59;;;7.49;100.00
49841;BME280;35738;49.890;5.930;2023-04-24T12:25:29;95142.13;;;7.26;100.00
49841;BME280;35738;49.890;5.930;2023-04-24T12:30:34;95147.81;;;7.04;100.00
49841;BME280;35738;49.890;5.930;2023-04-24T12:33:02;95144.47;;;6.98;100.00
49841;BME280;35738;49.890;5.930;2023-04-24T12:35:32;95145.72;;;7.10;100.00
49841;BME280;35738;49.890;5.930;2023-04-24T12:38:09;95144.13;;;7.09;100.00
49841;BME280;35738;49.890;5.930;2023-04-24T12:40:36;95150.53;;;7.13;100.00
49841;BME280;35738;49.890;5.930;2023-04-24T12:43:16;95151.03;;;7.06;100.00
49841;BME280;35738;49.890;5.930;2023-04-24T12:45:43;95139.47;;;7.00;100.00
49841;BME280;35738;49.890;5.930;2023-04-24T12:48:11;95156.84;;;6.96;100.00
49841;BME280;35738;49.890;5.930;2023-04-24T12:50:41;95158.41;;;7.14;100.00
49841;BME280;35738;49.890;5.930;2023-04-24T12:53:12;95153.94;;;7.01;100.00
49841;BME280;35738;49.890;5.930;2023-04-24T12:55:39;95148.31;;;6.97;100.00
49841;BME280;35738;49.890;5.930;2023-04-24T12:58:07;95150.72;;;6.99;100.00
49841;BME280;35738;49.890;5.930;2023-04-24T13:00:34;95146.69;;;7.14;100.00
49841;BME280;35738;49.890;5.930;2023-04-24T13:03:01;95155.19;;;7.21;100.00
49841;BME280;35738;49.890;5.930;2023-04-24T13:39:11;95106.13;;;8.84;100.00
49841;BME280;35738;49.890;5.930;2023-04-24T13:41:41;95110.94;;;8.87;100.00
49841;BME280;35738;49.890;5.930;2023-04-24T13:44:08;95111.72;;;8.54;100.00
49841;BME280;35738;49.890;5.930;2023-04-24T13:46:35;95119.00;;;8.50;100.00
49841;BME280;35738;49.890;5.930;2023-04-24T13:49:02;95126.28;;;8.46;100.00
49841;BME280;35738;49.890;5.930;2023-04-24T13:51:30;95111.75;;;8.25;100.00
49841;BME280;35738;49.890;5.930;2023-04-24T13:53:56;95110.16;;;8.24;100.00
49841;BME280;35738;49.890;5.930;2023-04-24T13:56:23;95108.66;;;8.35;100.00
49841;BME280;35738;49.890;5.930;2023-04-24T13:58:50;95101.41;;;8.31;100.00
49841;BME280;35738;49.890;5.930;2023-04-24T14:01:18;95103.28;;;8.39;100.00
49841;BME280;35738;49.890;5.930;2023-04-24T14:03:44;95108.81;;;8.01;100.00
49841;BME280;35738;49.890;5.930;2023-04-24T14:06:11;95092.56;;;8.25;100.00
49841;BME280;35738;49.890;5.930;2023-04-24T14:08:38;95106.44;;;9.03;100.00
49841;BME280;35738;49.890;5.930;2023-04-24T14:11:05;95091.88;;;9.36;100.00
49841;BME280;35738;49.890;5.930;2023-04-24T14:13:36;95092.97;;;9.10;100.00
49841;BME280;35738;49.890;5.930;2023-04-24T14:16:04;95089.00;;;9.20;100.00
49841;BME280;35738;49.890;5.930;2023-04-24T14:18:31;95076.53;;;9.22;100.00
49841;BME280;35738;49.890;5.930;2023-04-24T14:20:58;95085.25;;;9.24;100.00
49841;BME280;35738;49.890;5.930;2023-04-24T14:23:24;95086.22;;;9.08;100.00
49841;BME280;35738;49.890;5.930;2023-04-24T14:25:51;95078.59;;;9.13;100.00
49841;BME280;35738;49.890;5.930;2023-04-24T14:28:19;95080.78;;;9.20;100.00
49841;BME280;35738;49.890;5.930;2023-04-24T14:30:47;95080.81;;;9.44;100.00
49841;BME280;35738;49.890;5.930;2023-04-24T14:33:14;95060.66;;;9.16;100.00
49841;BME280;35738;49.890;5.930;2023-04-24T14:35:41;95063.41;;;8.83;100.00
49841;BME280;35738;49.890;5.930;2023-04-24T14:38:09;95086.63;;;8.65;100.00
49841;BME280;35738;49.890;5.930;2023-04-24T14:40:36;95085.97;;;8.47;100.00
49841;BME280;35738;49.890;5.930;2023-04-24T14:43:23;95079.97;;;8.53;100.00
49841;BME280;35738;49.890;5.930;2023-04-24T14:45:50;95095.56;;;8.74;100.00
49841;BME280;35738;49.890;5.930;2023-04-24T14:48:16;95064.63;;;8.73;100.00
49841;BME280;35738;49.890;5.930;2023-04-24T14:50:44;95095.00;;;8.47;100.00
49841;BME280;35738;49.890;5.930;2023-04-24T14:53:11;95102.56;;;8.50;100.00
49841;BME280;35738;49.890;5.930;2023-04-24T14:55:38;95108.81;;;8.72;100.00
49841;BME280;35738;49.890;5.930;2023-04-24T14:58:04;95098.50;;;8.89;100.00
49841;BME280;35738;49.890;5.930;2023-04-24T15:00:31;95090.50;;;9.30;100.00
49841;BME280;35738;49.890;5.930;2023-04-24T15:02:58;95096.53;;;9.80;100.00
49841;BME280;35738;49.890;5.930;2023-04-24T15:05:25;95080.28;;;9.75;100.00
49841;BME280;35738;49.890;5.930;2023-04-24T15:07:52;95092.28;;;9.71;100.00
49841;BME280;35738;49.890;5.930;2023-04-24T15:10:19;95090.91;;;9.77;100.00
49841;BME280;35738;49.890;5.930;2023-04-24T15:12:49;95093.94;;;9.39;100.00
49841;BME280;35738;49.890;5.930;2023-04-24T15:15:16;95091.03;;;8.78;100.00
49841;BME280;35738;49.890;5.930;2023-04-24T15:17:43;95098.59;;;8.60;100.00
49841;BME280;35738;49.890;5.930;2023-04-24T15:20:09;95097.78;;;8.18;100.00
49841;BME280;35738;49.890;5.930;2023-04-24T15:22:36;95105.22;;;8.09;100.00
49841;BME280;35738;49.890;5.930;2023-04-24T15:25:03;95100.31;;;7.93;100.00
49841;BME280;35738;49.890;5.930;2023-04-24T15:27:39;95109.22;;;7.90;100.00
49841;BME280;35738;49.890;5.930;2023-04-24T15:30:07;95120.00;;;7.87;100.00
49841;BME280;35738;49.890;5.930;2023-04-24T15:32:35;95133.09;;;7.81;100.00
49841;BME280;35738;49.890;5.930;2023-04-24T15:35:02;95128.06;;;7.54;100.00
49841;BME280;35738;49.890;5.930;2023-04-24T15:37:35;95131.72;;;7.11;100.00
49841;BME280;35738;49.890;5.930;2023-04-24T15:40:02;95145.75;;;6.92;100.00
49841;BME280;35738;49.890;5.930;2023-04-24T15:42:33;95155.06;;;6.65;100.00
49841;BME280;35738;49.890;5.930;2023-04-24T15:44:59;95171.94;;;6.42;100.00
49841;BME280;35738;49.890;5.930;2023-04-24T15:47:26;95165.97;;;6.22;100.00
49841;BME280;35738;49.890;5.930;2023-04-24T15:49:53;95174.00;;;6.19;100.00
49841;BME280;35738;49.890;5.930;2023-04-24T15:52:20;95177.53;;;6.19;100.00
49841;BME280;35738;49.890;5.930;2023-04-24T15:54:46;95185.28;;;6.52;100.00
49841;BME280;35738;49.890;5.930;2023-04-24T15:57:15;95179.97;;;6.55;100.00
49841;BME280;35738;49.890;5.930;2023-04-24T15:59:44;95188.53;;;6.71;100.00
49841;BME280;35738;49.890;5.930;2023-04-24T16:02:12;95191.72;;;6.64;100.00
49841;BME280;35738;49.890;5.930;2023-04-24T16:04:47;95190.47;;;6.71;100.00
49841;BME280;35738;49.890;5.930;2023-04-24T16:07:15;95197.84;;;6.70;100.00